Time;durP1;ratioP1;P1;durP2;ratioP2;P2;SDS_P1;SDS_P2;PMS_P1;PMS_P2;Temp;Humidity;BMP_temperature;BMP_pressure;BME280_temperature;BME280_humidity;BME280_pressure;Samples;Min_cycle;Max_cycle;Signal;HPM_P1;HPM_P2
2022/10/14 00:01:17;;;;;;;69.97;40.60;;;;;;;;;;747337;186;816343;-65
2022/10/14 00:03:42;;;;;;;57.60;35.23;;;;;;;;;;741470;187;919993;-65
2022/10/14 00:06:11;;;;;;;65.30;39.47;;;;;;;;;;742691;186;913566;-64
2022/10/14 00:08:37;;;;;;;67.00;40.60;;;;;;;;;;749384;185;918231;-60
2022/10/14 00:11:04;;;;;;;57.63;35.90;;;;;;;;;;744088;187;918558;-61
2022/10/14 00:13:30;;;;;;;64.10;39.90;;;;;;;;;;743609;185;919849;-61
2022/10/14 00:15:56;;;;;;;63.50;38.63;;;;;;;;;;749864;187;919464;-59
2022/10/14 00:18:22;;;;;;;66.40;42.47;;;;;;;;;;742055;187;919202;-65
2022/10/14 00:20:52;;;;;;;65.83;39.50;;;;;;;;;;741091;187;941554;-60
2022/10/14 00:23:18;;;;;;;53.50;35.97;;;;;;;;;;742620;187;917596;-61
2022/10/14 00:25:44;;;;;;;62.53;37.00;;;;;;;;;;747685;187;918108;-61
2022/10/14 00:28:10;;;;;;;57.63;35.17;;;;;;;;;;743056;186;920662;-67
2022/10/14 00:30:36;;;;;;;58.60;37.03;;;;;;;;;;742731;187;917891;-62
2022/10/14 00:33:01;;;;;;;59.60;37.03;;;;;;;;;;748443;187;917621;-66
2022/10/14 00:35:27;;;;;;;68.00;38.30;;;;;;;;;;742535;186;920664;-61
2022/10/14 00:37:53;;;;;;;58.90;37.00;;;;;;;;;;742348;186;920538;-61
2022/10/14 00:40:19;;;;;;;61.60;37.70;;;;;;;;;;747993;186;918707;-66
2022/10/14 00:42:45;;;;;;;59.75;35.85;;;;;;;;;;750730;185;919022;-66
2022/10/14 00:45:11;;;;;;;61.90;36.43;;;;;;;;;;737784;187;918563;-61
2022/10/14 00:47:37;;;;;;;61.97;37.57;;;;;;;;;;744693;186;815833;-65
2022/10/14 00:50:03;;;;;;;58.90;35.57;;;;;;;;;;748698;186;918756;-66
2022/10/14 00:52:29;;;;;;;63.33;37.83;;;;;;;;;;743396;185;917648;-66
2022/10/14 00:54:56;;;;;;;62.00;38.37;;;;;;;;;;742868;187;913904;-65
2022/10/14 00:57:21;;;;;;;55.80;35.20;;;;;;;;;;747519;187;815634;-67
2022/10/14 00:59:47;;;;;;;58.93;35.47;;;;;;;;;;745728;185;916167;-66
2022/10/14 01:02:13;;;;;;;55.37;35.90;;;;;;;;;;744218;187;915022;-61
2022/10/14 01:04:39;;;;;;;58.40;36.30;;;;;;;;;;743262;186;915341;-65
2022/10/14 01:07:15;;;;;;;63.40;35.83;;;;;;;;;;746524;188;877035;-66
2022/10/14 01:09:41;;;;;;;58.00;35.93;;;;;;;;;;736847;188;919063;-66
2022/10/14 01:12:08;;;;;;;62.60;37.10;;;;;;;;;;741477;185;918500;-66
2022/10/14 01:14:40;;;;;;;68.43;35.70;;;;;;;;;;742118;186;919083;-62
2022/10/14 01:17:10;;;;;;;53.33;35.80;;;;;;;;;;745177;184;915960;-66
2022/10/14 01:19:36;;;;;;;64.57;37.47;;;;;;;;;;746850;187;919469;-62
2022/10/14 01:22:05;;;;;;;59.83;36.37;;;;;;;;;;740269;187;919072;-60
2022/10/14 01:24:37;;;;;;;54.57;38.00;;;;;;;;;;739889;187;914868;-66
2022/10/14 01:27:14;;;;;;;59.03;34.77;;;;;;;;;;741879;187;917145;-61
2022/10/14 01:29:57;;;;;;;54.10;36.93;;;;;;;;;;750850;187;911858;-66
2022/10/14 01:32:26;;;;;;;57.43;36.50;;;;;;;;;;748527;187;812447;-61
2022/10/14 01:34:53;;;;;;;56.33;36.20;;;;;;;;;;740287;187;916399;-62
2022/10/14 01:37:19;;;;;;;52.00;32.30;;;;;;;;;;742506;187;814012;-61
2022/10/14 01:39:45;;;;;;;60.00;33.60;;;;;;;;;;747699;184;816046;-67
2022/10/14 01:42:10;;;;;;;56.37;34.70;;;;;;;;;;739854;186;943983;-61
2022/10/14 01:44:36;;;;;;;54.30;32.70;;;;;;;;;;741289;186;918764;-66
2022/10/14 01:47:02;;;;;;;52.43;35.97;;;;;;;;;;740255;187;920280;-66
2022/10/14 01:49:28;;;;;;;56.53;37.07;;;;;;;;;;748123;187;919226;-61
2022/10/14 01:51:54;;;;;;;53.97;33.70;;;;;;;;;;745261;187;816567;-62
2022/10/14 01:54:20;;;;;;;58.08;34.72;;;;;;;;;;743082;185;918497;-62
2022/10/14 01:56:45;;;;;;;54.30;34.10;;;;;;;;;;743471;187;816971;-62
2022/10/14 01:59:11;;;;;;;54.40;34.50;;;;;;;;;;748840;186;714659;-66
2022/10/14 02:01:37;;;;;;;58.93;35.70;;;;;;;;;;748157;186;924029;-66
2022/10/14 02:04:03;;;;;;;60.13;36.93;;;;;;;;;;747820;186;918622;-62
2022/10/14 02:06:29;;;;;;;57.83;36.97;;;;;;;;;;741496;186;918440;-67
2022/10/14 02:09:16;;;;;;;48.93;34.43;;;;;;;;;;741390;187;944069;-60
2022/10/14 02:11:41;;;;;;;52.10;35.15;;;;;;;;;;749267;185;919823;-66
2022/10/14 02:14:10;;;;;;;53.47;34.93;;;;;;;;;;747220;185;619267;-66
2022/10/14 02:16:41;;;;;;;57.90;34.83;;;;;;;;;;748610;187;625694;-61
2022/10/14 02:19:07;;;;;;;49.37;32.90;;;;;;;;;;754186;186;637107;-66
2022/10/14 02:21:39;;;;;;;54.53;35.47;;;;;;;;;;742620;187;922394;-66
2022/10/14 02:24:19;;;;;;;56.95;35.60;;;;;;;;;;742379;187;925337;-66
2022/10/14 02:26:45;;;;;;;53.47;32.77;;;;;;;;;;742934;187;918266;-66
2022/10/14 02:29:11;;;;;;;55.17;34.40;;;;;;;;;;749184;187;918580;-66
2022/10/14 02:31:37;;;;;;;51.83;33.40;;;;;;;;;;743383;186;919356;-61
2022/10/14 02:34:03;;;;;;;55.43;38.67;;;;;;;;;;743137;187;919579;-66
2022/10/14 02:36:29;;;;;;;53.80;33.87;;;;;;;;;;748678;187;818205;-61
2022/10/14 02:38:55;;;;;;;49.83;32.80;;;;;;;;;;745544;185;919630;-66
2022/10/14 02:41:20;;;;;;;49.17;33.80;;;;;;;;;;739683;187;918846;-66
2022/10/14 02:43:46;;;;;;;53.37;36.53;;;;;;;;;;750073;187;817912;-61
2022/10/14 02:46:12;;;;;;;54.80;35.60;;;;;;;;;;739627;187;919442;-66
2022/10/14 02:48:38;;;;;;;56.13;36.40;;;;;;;;;;740691;187;915428;-62
2022/10/14 02:51:04;;;;;;;52.97;35.42;;;;;;;;;;742450;187;937456;-61
2022/10/14 02:53:30;;;;;;;48.87;32.90;;;;;;;;;;747302;186;920463;-62
2022/10/14 02:55:55;;;;;;;48.30;33.33;;;;;;;;;;745547;187;918968;-60
2022/10/14 02:58:21;;;;;;;49.17;33.27;;;;;;;;;;744406;185;919067;-66
2022/10/14 03:00:47;;;;;;;50.70;33.83;;;;;;;;;;746971;187;919123;-61
2022/10/14 03:03:13;;;;;;;52.20;32.87;;;;;;;;;;741411;187;919336;-60
2022/10/14 03:05:39;;;;;;;60.23;36.10;;;;;;;;;;743297;187;921545;-67
2022/10/14 03:08:05;;;;;;;48.53;32.60;;;;;;;;;;748218;185;920490;-60
2022/10/14 03:10:31;;;;;;;53.20;33.13;;;;;;;;;;741595;187;916401;-67
2022/10/14 03:12:56;;;;;;;49.27;33.43;;;;;;;;;;744349;186;917742;-62
2022/10/14 03:15:22;;;;;;;47.90;33.53;;;;;;;;;;743272;186;918496;-62
2022/10/14 03:17:48;;;;;;;51.77;34.07;;;;;;;;;;742973;188;822491;-62
2022/10/14 03:20:14;;;;;;;55.47;34.57;;;;;;;;;;741883;186;919097;-62
2022/10/14 03:22:40;;;;;;;55.35;35.83;;;;;;;;;;743942;186;916582;-66
2022/10/14 03:25:06;;;;;;;51.70;35.07;;;;;;;;;;749071;187;793595;-62
2022/10/14 03:27:32;;;;;;;54.37;34.20;;;;;;;;;;742570;184;918304;-61
2022/10/14 03:29:58;;;;;;;52.47;35.27;;;;;;;;;;741847;186;918665;-67
2022/10/14 03:32:24;;;;;;;52.20;35.20;;;;;;;;;;748656;187;907241;-62
2022/10/14 03:34:50;;;;;;;46.47;32.13;;;;;;;;;;743523;185;919105;-62
2022/10/14 03:37:16;;;;;;;55.87;36.33;;;;;;;;;;744257;185;912968;-60
2022/10/14 03:39:42;;;;;;;53.00;35.20;;;;;;;;;;744304;185;916255;-66
2022/10/14 03:42:08;;;;;;;45.73;33.87;;;;;;;;;;750625;186;918643;-62
2022/10/14 03:44:34;;;;;;;49.07;31.97;;;;;;;;;;743473;186;919090;-60
2022/10/14 03:47:00;;;;;;;55.40;35.37;;;;;;;;;;744828;186;918681;-59
2022/10/14 03:49:26;;;;;;;53.67;35.38;;;;;;;;;;746014;186;929619;-67
2022/10/14 03:51:51;;;;;;;61.23;36.43;;;;;;;;;;740316;186;919216;-67
2022/10/14 03:54:17;;;;;;;55.93;37.10;;;;;;;;;;745618;186;907555;-61
2022/10/14 03:56:43;;;;;;;63.37;40.67;;;;;;;;;;747556;186;917259;-61
2022/10/14 03:59:09;;;;;;;66.73;39.40;;;;;;;;;;742537;187;828684;-67
2022/10/14 04:01:35;;;;;;;62.97;40.05;;;;;;;;;;742290;187;921097;-67
2022/10/14 04:04:01;;;;;;;53.70;36.40;;;;;;;;;;749251;186;618804;-68
2022/10/14 04:06:27;;;;;;;64.47;39.63;;;;;;;;;;745192;186;624131;-60
2022/10/14 04:08:52;;;;;;;59.67;38.40;;;;;;;;;;743421;186;816586;-68
2022/10/14 04:11:18;;;;;;;52.97;35.60;;;;;;;;;;741143;184;914464;-66
2022/10/14 04:13:44;;;;;;;50.50;34.80;;;;;;;;;;746100;186;820210;-67
2022/10/14 04:16:10;;;;;;;56.83;35.38;;;;;;;;;;742712;185;810110;-66
2022/10/14 04:18:36;;;;;;;54.27;33.70;;;;;;;;;;743215;185;921187;-66
2022/10/14 04:21:02;;;;;;;51.97;36.07;;;;;;;;;;747375;185;814104;-66
2022/10/14 04:23:27;;;;;;;53.33;33.80;;;;;;;;;;745442;186;838370;-66
2022/10/14 04:25:53;;;;;;;52.33;35.37;;;;;;;;;;746865;186;815126;-62
2022/10/14 04:28:19;;;;;;;51.17;32.60;;;;;;;;;;747279;185;869186;-61
2022/10/14 04:30:45;;;;;;;50.80;33.33;;;;;;;;;;741233;186;933987;-67
2022/10/14 04:33:11;;;;;;;49.03;32.33;;;;;;;;;;740435;186;927239;-61
2022/10/14 04:35:37;;;;;;;55.63;33.03;;;;;;;;;;741492;187;920091;-62
2022/10/14 04:38:03;;;;;;;48.43;32.27;;;;;;;;;;752663;185;713598;-62
2022/10/14 04:40:29;;;;;;;42.97;31.57;;;;;;;;;;743791;186;812570;-62
2022/10/14 04:42:55;;;;;;;49.20;32.17;;;;;;;;;;741101;186;918688;-62
2022/10/14 04:45:20;;;;;;;48.57;34.67;;;;;;;;;;748657;187;815101;-67
2022/10/14 04:47:46;;;;;;;50.50;32.10;;;;;;;;;;742659;187;906225;-62
2022/10/14 04:50:12;;;;;;;49.40;32.80;;;;;;;;;;748337;186;622388;-62
2022/10/14 04:52:38;;;;;;;48.23;32.80;;;;;;;;;;747923;187;816145;-67
2022/10/14 04:55:04;;;;;;;47.20;34.22;;;;;;;;;;746034;186;908601;-62
2022/10/14 04:57:30;;;;;;;46.37;31.20;;;;;;;;;;741474;187;842667;-61
2022/10/14 04:59:56;;;;;;;50.57;34.60;;;;;;;;;;745099;187;714440;-61
2022/10/14 05:02:21;;;;;;;42.93;31.27;;;;;;;;;;751172;187;723497;-62
2022/10/14 05:04:47;;;;;;;53.23;34.90;;;;;;;;;;741619;185;915229;-62
2022/10/14 05:07:13;;;;;;;45.20;31.27;;;;;;;;;;741232;187;919935;-61
2022/10/14 05:09:39;;;;;;;46.43;32.63;;;;;;;;;;747650;184;919647;-62
2022/10/14 05:12:05;;;;;;;55.97;34.90;;;;;;;;;;746233;186;919573;-66
2022/10/14 05:14:31;;;;;;;48.40;32.27;;;;;;;;;;742058;186;955034;-66
2022/10/14 05:16:57;;;;;;;46.87;34.80;;;;;;;;;;747286;186;928715;-66
2022/10/14 05:19:23;;;;;;;50.03;33.30;;;;;;;;;;742580;185;921048;-68
2022/10/14 05:21:48;;;;;;;53.63;36.78;;;;;;;;;;743208;186;919133;-68
2022/10/14 05:24:14;;;;;;;52.67;34.23;;;;;;;;;;746675;187;918486;-68
2022/10/14 05:26:40;;;;;;;48.33;31.87;;;;;;;;;;744880;185;816084;-61
2022/10/14 05:29:06;;;;;;;50.17;33.60;;;;;;;;;;740942;187;919308;-60
2022/10/14 05:31:32;;;;;;;51.80;33.20;;;;;;;;;;742476;187;820111;-61
2022/10/14 05:33:58;;;;;;;52.93;32.47;;;;;;;;;;749061;186;711018;-61
2022/10/14 05:36:24;;;;;;;47.13;31.43;;;;;;;;;;747053;185;914649;-67
2022/10/14 05:38:49;;;;;;;52.60;31.47;;;;;;;;;;748600;185;628496;-66
2022/10/14 05:41:15;;;;;;;43.97;31.13;;;;;;;;;;752027;187;619911;-67
2022/10/14 05:43:41;;;;;;;48.03;32.17;;;;;;;;;;745223;187;815275;-65
2022/10/14 05:46:07;;;;;;;48.07;32.90;;;;;;;;;;743613;187;815769;-65
2022/10/14 05:48:33;;;;;;;56.90;35.03;;;;;;;;;;746393;187;919417;-62
2022/10/14 05:51:01;;;;;;;48.00;32.67;;;;;;;;;;738833;186;918603;-67
2022/10/14 05:53:24;;;;;;;49.60;32.83;;;;;;;;;;741693;187;915997;-61
2022/10/14 05:55:50;;;;;;;49.23;33.20;;;;;;;;;;743426;186;916972;-62
2022/10/14 05:58:16;;;;;;;56.33;33.43;;;;;;;;;;746255;186;911916;-67
2022/10/14 06:00:42;;;;;;;49.50;33.73;;;;;;;;;;736611;188;921068;-61
2022/10/14 06:03:08;;;;;;;51.13;34.57;;;;;;;;;;742223;184;916220;-61
2022/10/14 06:05:34;;;;;;;49.65;33.33;;;;;;;;;;745196;185;918697;-67
2022/10/14 06:07:59;;;;;;;53.37;34.80;;;;;;;;;;742929;187;920327;-65
2022/10/14 06:10:26;;;;;;;53.60;35.70;;;;;;;;;;741763;186;919048;-65
2022/10/14 06:12:51;;;;;;;54.10;34.83;;;;;;;;;;747055;187;921665;-66
2022/10/14 06:15:17;;;;;;;51.53;33.83;;;;;;;;;;743389;187;922034;-61
2022/10/14 06:17:43;;;;;;;53.73;34.80;;;;;;;;;;745616;187;769097;-62
2022/10/14 06:20:10;;;;;;;46.42;32.28;;;;;;;;;;746545;187;917725;-60
2022/10/14 06:22:36;;;;;;;47.90;33.70;;;;;;;;;;748080;186;922766;-61
2022/10/14 06:25:01;;;;;;;54.60;35.70;;;;;;;;;;744320;184;812621;-61
2022/10/14 06:27:27;;;;;;;48.40;34.80;;;;;;;;;;741847;186;818800;-66
2022/10/14 06:29:53;;;;;;;57.87;36.13;;;;;;;;;;745801;187;920924;-61
2022/10/14 06:32:19;;;;;;;51.07;33.23;;;;;;;;;;740771;186;921248;-61
2022/10/14 06:34:45;;;;;;;46.60;32.30;;;;;;;;;;741250;186;918462;-65
2022/10/14 06:37:11;;;;;;;48.23;29.50;;;;;;;;;;747574;186;889898;-66
2022/10/14 06:39:37;;;;;;;47.00;31.63;;;;;;;;;;743907;187;921102;-66
2022/10/14 06:42:02;;;;;;;44.47;32.00;;;;;;;;;;742663;187;921582;-61
2022/10/14 06:44:28;;;;;;;54.30;34.37;;;;;;;;;;746722;186;917867;-66
2022/10/14 06:46:54;;;;;;;52.17;34.90;;;;;;;;;;745430;185;923464;-66
2022/10/14 06:49:20;;;;;;;48.40;31.33;;;;;;;;;;741962;186;919023;-61
2022/10/14 06:51:46;;;;;;;48.17;31.87;;;;;;;;;;742021;186;919307;-61
2022/10/14 06:54:12;;;;;;;51.67;32.07;;;;;;;;;;746122;187;919177;-61
2022/10/14 06:56:37;;;;;;;57.50;31.57;;;;;;;;;;744560;185;811306;-59
2022/10/14 06:59:04;;;;;;;46.47;31.07;;;;;;;;;;743295;186;911996;-66
2022/10/14 07:01:29;;;;;;;49.13;33.53;;;;;;;;;;748118;186;909543;-61
2022/10/14 07:03:55;;;;;;;47.60;33.53;;;;;;;;;;747028;185;810845;-61
2022/10/14 07:06:21;;;;;;;48.97;33.60;;;;;;;;;;746744;185;819421;-60
2022/10/14 07:08:47;;;;;;;51.43;32.90;;;;;;;;;;747331;186;824092;-67
2022/10/14 07:11:12;;;;;;;47.10;29.80;;;;;;;;;;743275;187;917086;-61
2022/10/14 07:13:38;;;;;;;42.80;29.63;;;;;;;;;;744160;185;814976;-61
2022/10/14 07:16:04;;;;;;;42.53;29.40;;;;;;;;;;742499;186;910013;-66
2022/10/14 07:18:30;;;;;;;43.00;29.30;;;;;;;;;;754743;187;614374;-61
2022/10/14 07:20:56;;;;;;;48.57;29.60;;;;;;;;;;747554;184;653231;-67
2022/10/14 07:23:22;;;;;;;43.40;28.00;;;;;;;;;;741525;185;924305;-61
2022/10/14 07:25:48;;;;;;;39.87;26.50;;;;;;;;;;750642;187;619084;-66
2022/10/14 07:28:14;;;;;;;43.23;27.73;;;;;;;;;;745944;187;919210;-61
2022/10/14 07:30:39;;;;;;;38.43;25.03;;;;;;;;;;742737;186;917473;-61
2022/10/14 07:33:05;;;;;;;37.23;26.17;;;;;;;;;;746560;187;919272;-61
2022/10/14 07:35:31;;;;;;;37.07;24.70;;;;;;;;;;743185;184;920437;-61
2022/10/14 07:37:57;;;;;;;39.53;27.10;;;;;;;;;;743134;187;906943;-61
2022/10/14 07:40:24;;;;;;;34.85;23.90;;;;;;;;;;746379;187;876445;-68
2022/10/14 07:42:49;;;;;;;35.20;25.00;;;;;;;;;;745341;185;919034;-60
2022/10/14 07:45:17;;;;;;;35.83;24.30;;;;;;;;;;743386;187;918898;-66
2022/10/14 07:47:41;;;;;;;39.57;25.17;;;;;;;;;;744454;186;917853;-61
2022/10/14 07:50:07;;;;;;;39.50;25.63;;;;;;;;;;747508;184;911178;-60
2022/10/14 07:52:33;;;;;;;38.00;24.77;;;;;;;;;;743430;186;816655;-65
2022/10/14 07:54:59;;;;;;;36.87;25.17;;;;;;;;;;746074;187;918424;-66
2022/10/14 07:57:26;;;;;;;44.17;25.70;;;;;;;;;;748606;186;916716;-61
2022/10/14 07:59:51;;;;;;;37.63;25.25;;;;;;;;;;744536;186;918040;-61
2022/10/14 08:02:17;;;;;;;45.83;26.47;;;;;;;;;;742939;186;922376;-65
2022/10/14 08:04:42;;;;;;;41.77;27.80;;;;;;;;;;748493;187;919294;-61
2022/10/14 08:07:08;;;;;;;43.33;26.30;;;;;;;;;;741460;187;918767;-65
2022/10/14 08:09:35;;;;;;;43.33;26.30;;;;;;;;;;740660;187;919145;-61
2022/10/14 08:12:01;;;;;;;47.93;27.03;;;;;;;;;;743284;186;918766;-61
2022/10/14 08:14:26;;;;;;;39.30;26.98;;;;;;;;;;748086;186;918836;-60
2022/10/14 08:16:52;;;;;;;39.40;26.00;;;;;;;;;;744167;186;918545;-61
2022/10/14 08:19:18;;;;;;;36.90;26.90;;;;;;;;;;744236;187;915750;-61
2022/10/14 08:21:43;;;;;;;38.07;26.03;;;;;;;;;;748141;187;818041;-66
2022/10/14 08:24:09;;;;;;;41.47;25.10;;;;;;;;;;744199;184;919306;-66
2022/10/14 08:26:35;;;;;;;35.00;24.73;;;;;;;;;;740325;187;920765;-61
2022/10/14 08:29:01;;;;;;;38.13;25.77;;;;;;;;;;747918;187;916165;-65
2022/10/14 08:31:27;;;;;;;37.22;24.05;;;;;;;;;;742759;185;918458;-65
2022/10/14 08:33:53;;;;;;;40.70;26.90;;;;;;;;;;742981;185;918604;-65
2022/10/14 08:36:19;;;;;;;44.97;27.57;;;;;;;;;;745594;184;817563;-65
2022/10/14 08:38:44;;;;;;;40.80;25.73;;;;;;;;;;744661;185;918315;-65
2022/10/14 08:41:14;;;;;;;32.40;24.50;;;;;;;;;;743562;186;817758;-66
2022/10/14 08:43:41;;;;;;;37.93;25.03;;;;;;;;;;739162;185;921472;-61
2022/10/14 08:46:08;;;;;;;33.23;23.83;;;;;;;;;;748687;185;802772;-62
2022/10/14 08:48:35;;;;;;;37.10;24.63;;;;;;;;;;745254;186;817006;-61
2022/10/14 08:51:03;;;;;;;36.07;25.40;;;;;;;;;;742399;187;787835;-60
2022/10/14 08:53:29;;;;;;;33.30;24.40;;;;;;;;;;740432;187;919459;-66
2022/10/14 08:55:56;;;;;;;36.33;24.17;;;;;;;;;;748478;186;816122;-60
2022/10/14 08:58:23;;;;;;;34.87;24.50;;;;;;;;;;744019;187;916844;-61
2022/10/14 09:00:49;;;;;;;43.27;27.03;;;;;;;;;;740612;184;933641;-60
2022/10/14 09:03:15;;;;;;;37.53;23.43;;;;;;;;;;746920;187;918288;-61
2022/10/14 09:05:41;;;;;;;36.30;24.40;;;;;;;;;;746437;186;915939;-65
2022/10/14 09:08:07;;;;;;;48.10;26.20;;;;;;;;;;740794;185;924089;-67
2022/10/14 09:10:33;;;;;;;37.43;24.27;;;;;;;;;;743366;186;918297;-61
2022/10/14 09:12:59;;;;;;;37.03;24.50;;;;;;;;;;754972;182;921980;-61
2022/10/14 09:15:27;;;;;;;37.63;23.47;;;;;;;;;;743674;186;813653;-60
2022/10/14 09:17:55;;;;;;;38.47;24.83;;;;;;;;;;743158;186;916970;-61
2022/10/14 09:20:21;;;;;;;36.40;23.47;;;;;;;;;;747260;186;870986;-61
2022/10/14 09:22:47;;;;;;;40.67;25.83;;;;;;;;;;744529;186;918694;-60
2022/10/14 09:25:14;;;;;;;43.37;28.60;;;;;;;;;;743780;186;922547;-67
2022/10/14 09:27:40;;;;;;;39.95;24.73;;;;;;;;;;744853;187;919030;-66
2022/10/14 09:30:09;;;;;;;34.67;24.07;;;;;;;;;;753346;185;861324;-62
2022/10/14 09:32:32;;;;;;;58.87;25.87;;;;;;;;;;746084;185;634921;-67
2022/10/14 09:34:58;;;;;;;34.90;22.90;;;;;;;;;;743304;184;901430;-66
2022/10/14 09:37:30;;;;;;;41.43;25.57;;;;;;;;;;747713;187;918965;-60
2022/10/14 09:39:59;;;;;;;37.43;28.43;;;;;;;;;;744199;186;917303;-61
2022/10/14 09:42:25;;;;;;;35.43;25.20;;;;;;;;;;743262;187;810128;-67
2022/10/14 09:44:55;;;;;;;30.30;22.47;;;;;;;;;;741329;187;919158;-61
2022/10/14 09:47:21;;;;;;;38.07;25.30;;;;;;;;;;747761;187;819690;-62
2022/10/14 09:49:47;;;;;;;33.57;24.20;;;;;;;;;;747946;187;817532;-61
2022/10/14 09:52:21;;;;;;;35.53;24.90;;;;;;;;;;746477;187;632128;-61
2022/10/14 09:54:55;;;;;;;35.10;23.87;;;;;;;;;;745355;187;622367;-61
2022/10/14 09:57:21;;;;;;;36.20;24.97;;;;;;;;;;751356;187;623536;-66
2022/10/14 09:59:46;;;;;;;34.83;25.30;;;;;;;;;;735190;186;627521;-66
2022/10/14 10:02:14;;;;;;;38.30;26.30;;;;;;;;;;743232;186;813660;-67
2022/10/14 10:04:40;;;;;;;49.33;26.40;;;;;;;;;;740739;187;924289;-66
2022/10/14 10:07:06;;;;;;;76.93;28.63;;;;;;;;;;744073;187;913492;-60
2022/10/14 10:09:32;;;;;;;63.73;29.10;;;;;;;;;;743974;186;917939;-66
2022/10/14 10:11:58;;;;;;;56.30;31.35;;;;;;;;;;743461;187;852026;-60
2022/10/14 10:14:23;;;;;;;45.33;29.37;;;;;;;;;;751011;186;623335;-61
2022/10/14 10:16:50;;;;;;;47.87;27.90;;;;;;;;;;746372;186;816776;-65
2022/10/14 10:19:22;;;;;;;42.60;28.50;;;;;;;;;;745811;186;635368;-60
2022/10/14 10:21:48;;;;;;;48.93;28.27;;;;;;;;;;748021;186;873406;-67
2022/10/14 10:24:20;;;;;;;47.53;30.90;;;;;;;;;;748650;187;817953;-59
2022/10/14 10:26:43;;;;;;;53.27;31.83;;;;;;;;;;741857;187;918539;-61
2022/10/14 10:29:10;;;;;;;41.15;29.60;;;;;;;;;;745775;184;916998;-66
2022/10/14 10:31:50;;;;;;;49.70;31.80;;;;;;;;;;745792;186;818392;-66
2022/10/14 10:34:35;;;;;;;53.87;33.40;;;;;;;;;;760393;185;625695;-60
2022/10/14 10:37:07;;;;;;;50.27;30.30;;;;;;;;;;755097;186;636742;-61
2022/10/14 10:39:32;;;;;;;48.27;31.00;;;;;;;;;;751734;187;627334;-62
2022/10/14 10:42:04;;;;;;;60.90;33.33;;;;;;;;;;744107;186;815675;-66
2022/10/14 10:44:31;;;;;;;63.20;33.38;;;;;;;;;;745754;186;918869;-60
2022/10/14 10:47:07;;;;;;;47.57;32.00;;;;;;;;;;748573;187;919303;-66
2022/10/14 10:49:37;;;;;;;52.67;33.40;;;;;;;;;;748927;187;918811;-65
2022/10/14 10:52:13;;;;;;;68.30;34.67;;;;;;;;;;747216;185;609279;-66
2022/10/14 10:54:40;;;;;;;57.30;34.53;;;;;;;;;;746274;187;626092;-61
2022/10/14 10:57:11;;;;;;;55.53;30.00;;;;;;;;;;741795;187;921509;-61
2022/10/14 10:59:39;;;;;;;55.80;31.27;;;;;;;;;;741846;186;921015;-66
2022/10/14 11:02:25;;;;;;;53.00;33.47;;;;;;;;;;748452;186;917162;-60
2022/10/14 11:04:56;;;;;;;49.97;32.20;;;;;;;;;;742908;184;905284;-66
2022/10/14 11:12:32;;;;;;;63.20;33.67;;;;;;;;;;741615;187;925484;-66
2022/10/14 11:14:58;;;;;;;52.23;32.03;;;;;;;;;;739770;185;915309;-66
2022/10/14 11:17:28;;;;;;;54.20;31.83;;;;;;;;;;742740;186;912901;-66
2022/10/14 11:19:57;;;;;;;52.57;32.03;;;;;;;;;;741233;186;919920;-60
2022/10/14 11:22:27;;;;;;;53.23;33.30;;;;;;;;;;738569;183;914877;-65
2022/10/14 11:24:57;;;;;;;52.43;32.60;;;;;;;;;;746696;187;914223;-59
2022/10/14 11:27:20;;;;;;;51.00;32.03;;;;;;;;;;741509;187;916855;-61
2022/10/14 11:30:00;;;;;;;55.73;33.07;;;;;;;;;;741336;187;919710;-59
2022/10/14 11:32:24;;;;;;;53.00;31.98;;;;;;;;;;744903;184;934681;-60
2022/10/14 11:34:55;;;;;;;57.67;31.17;;;;;;;;;;746207;186;715304;-61
2022/10/14 11:37:26;;;;;;;56.27;33.10;;;;;;;;;;750357;185;754149;-60
2022/10/14 11:40:03;;;;;;;58.37;32.33;;;;;;;;;;747981;187;634029;-66
2022/10/14 11:42:45;;;;;;;49.20;32.30;;;;;;;;;;750423;186;628587;-65
2022/10/14 11:45:14;;;;;;;46.70;31.60;;;;;;;;;;748834;186;629221;-67
2022/10/14 11:47:40;;;;;;;51.90;32.27;;;;;;;;;;741233;187;867637;-65
2022/10/14 11:50:10;;;;;;;49.07;30.93;;;;;;;;;;743891;184;916577;-65
2022/10/14 11:52:37;;;;;;;54.90;31.83;;;;;;;;;;747654;186;628925;-60
2022/10/14 11:55:03;;;;;;;51.40;32.40;;;;;;;;;;745894;186;632990;-66
2022/10/14 11:57:31;;;;;;;47.57;30.20;;;;;;;;;;745683;187;633429;-61
2022/10/14 11:59:59;;;;;;;50.77;31.60;;;;;;;;;;748519;187;821283;-61
2022/10/14 12:02:25;;;;;;;46.90;31.77;;;;;;;;;;746265;186;920986;-60
2022/10/14 12:04:52;;;;;;;51.40;31.70;;;;;;;;;;744412;186;918889;-65
2022/10/14 12:07:17;;;;;;;62.62;34.95;;;;;;;;;;742832;186;910896;-61
2022/10/14 12:09:44;;;;;;;48.07;33.33;;;;;;;;;;747608;187;914169;-65
2022/10/14 12:12:09;;;;;;;49.77;32.57;;;;;;;;;;743391;187;919321;-65
2022/10/14 12:14:35;;;;;;;54.40;35.50;;;;;;;;;;742290;185;918159;-65
2022/10/14 12:17:03;;;;;;;51.67;31.90;;;;;;;;;;747785;185;908880;-64
2022/10/14 12:19:29;;;;;;;50.90;33.13;;;;;;;;;;744954;186;631138;-61
2022/10/14 12:22:12;;;;;;;56.20;34.40;;;;;;;;;;744343;186;899087;-66
2022/10/14 12:24:38;;;;;;;58.33;33.50;;;;;;;;;;742143;186;819093;-65
2022/10/14 12:27:04;;;;;;;54.83;35.90;;;;;;;;;;741523;185;918434;-65
2022/10/14 12:29:31;;;;;;;71.77;36.30;;;;;;;;;;750214;186;917726;-61
2022/10/14 12:32:18;;;;;;;57.03;34.23;;;;;;;;;;741642;187;919635;-61
2022/10/14 12:34:45;;;;;;;56.93;37.30;;;;;;;;;;742229;187;816339;-61
2022/10/14 12:37:16;;;;;;;53.75;35.35;;;;;;;;;;742422;186;919109;-67
2022/10/14 12:39:42;;;;;;;57.77;35.93;;;;;;;;;;740433;186;919898;-64
2022/10/14 12:42:10;;;;;;;58.67;35.00;;;;;;;;;;736750;190;809674;-64
2022/10/14 12:44:41;;;;;;;56.77;34.93;;;;;;;;;;745605;185;816294;-63
2022/10/14 12:47:07;;;;;;;61.27;36.00;;;;;;;;;;746205;185;915030;-61
2022/10/14 12:49:33;;;;;;;64.23;35.27;;;;;;;;;;747476;187;916246;-65
2022/10/14 12:52:07;;;;;;;56.90;33.97;;;;;;;;;;744256;186;819568;-60
2022/10/14 12:54:33;;;;;;;48.30;32.67;;;;;;;;;;742785;187;918748;-59
2022/10/14 12:57:01;;;;;;;52.90;31.30;;;;;;;;;;742837;185;918328;-65
2022/10/14 12:59:27;;;;;;;45.13;31.43;;;;;;;;;;745823;183;916282;-65
2022/10/14 13:01:53;;;;;;;56.13;31.97;;;;;;;;;;742692;187;918699;-65
2022/10/14 13:04:19;;;;;;;39.37;28.17;;;;;;;;;;741117;185;919148;-65
2022/10/14 13:06:45;;;;;;;48.83;27.90;;;;;;;;;;741419;186;918990;-60
2022/10/14 13:09:18;;;;;;;43.33;26.50;;;;;;;;;;743665;188;811561;-59
2022/10/14 13:11:44;;;;;;;40.97;27.20;;;;;;;;;;737343;186;915891;-59
2022/10/14 13:14:16;;;;;;;45.37;28.10;;;;;;;;;;743009;187;839498;-59
2022/10/14 13:16:56;;;;;;;43.80;27.90;;;;;;;;;;741528;187;917996;-64
2022/10/14 13:19:42;;;;;;;37.50;27.37;;;;;;;;;;738786;187;916881;-64
2022/10/14 13:22:12;;;;;;;48.10;30.03;;;;;;;;;;743039;187;743647;-60
2022/10/14 13:24:37;;;;;;;36.00;26.77;;;;;;;;;;748090;187;919445;-64
2022/10/14 13:27:08;;;;;;;48.97;30.20;;;;;;;;;;741834;183;815737;-60
2022/10/14 13:29:35;;;;;;;47.47;29.87;;;;;;;;;;742385;187;816780;-64
2022/10/14 13:32:17;;;;;;;45.27;30.73;;;;;;;;;;737838;186;916831;-63
2022/10/14 13:34:49;;;;;;;47.10;29.40;;;;;;;;;;743588;184;816617;-64
2022/10/14 13:37:21;;;;;;;46.10;30.83;;;;;;;;;;748769;186;815904;-64
2022/10/14 13:39:47;;;;;;;53.73;30.40;;;;;;;;;;742315;187;818090;-65
2022/10/14 13:42:12;;;;;;;47.73;29.47;;;;;;;;;;743322;187;828818;-59
2022/10/14 13:44:38;;;;;;;52.10;30.80;;;;;;;;;;745771;186;714327;-60
2022/10/14 13:47:04;;;;;;;41.20;28.40;;;;;;;;;;749374;187;634979;-65
2022/10/14 13:49:30;;;;;;;48.40;30.80;;;;;;;;;;734744;186;796124;-59
2022/10/14 13:51:56;;;;;;;46.30;28.07;;;;;;;;;;747379;184;905441;-58
2022/10/14 13:54:22;;;;;;;38.80;26.90;;;;;;;;;;747765;186;812649;-59
2022/10/14 13:56:56;;;;;;;43.50;26.23;;;;;;;;;;745072;184;813220;-67
2022/10/14 13:59:22;;;;;;;38.90;25.70;;;;;;;;;;746218;184;650697;-59
2022/10/14 14:01:45;;;;;;;38.70;25.57;;;;;;;;;;745503;185;934633;-63
2022/10/14 14:04:11;;;;;;;30.20;20.70;;;;;;;;;;748007;187;918140;-58
2022/10/14 14:06:37;;;;;;;41.63;21.57;;;;;;;;;;745193;187;913830;-64
2022/10/14 14:09:03;;;;;;;31.90;21.63;;;;;;;;;;742091;185;923462;-64